sensor_id;sensor_type;location;lat;lon;timestamp;P1;durP1;ratioP1;P2;durP2;ratioP2
21114;SDS011;10715;48.546;9.896;2023-03-04T00:00:07;39.23;;;19.33;;
21114;SDS011;10715;48.546;9.896;2023-03-04T00:02:33;32.80;;;17.10;;
21114;SDS011;10715;48.546;9.896;2023-03-04T00:04:59;36.37;;;18.53;;
21114;SDS011;10715;48.546;9.896;2023-03-04T00:07:25;40.83;;;17.80;;
21114;SDS011;10715;48.546;9.896;2023-03-04T00:09:50;43.37;;;19.53;;
21114;SDS011;10715;48.546;9.896;2023-03-04T00:12:16;34.67;;;16.57;;
21114;SDS011;10715;48.546;9.896;2023-03-04T00:14:43;41.57;;;19.37;;
21114;SDS011;10715;48.546;9.896;2023-03-04T00:17:09;45.33;;;19.87;;
21114;SDS011;10715;48.546;9.896;2023-03-04T00:19:35;31.77;;;17.37;;
21114;SDS011;10715;48.546;9.896;2023-03-04T00:22:01;44.17;;;17.50;;
21114;SDS011;10715;48.546;9.896;2023-03-04T00:24:28;39.67;;;19.77;;
21114;SDS011;10715;48.546;9.896;2023-03-04T00:26:54;29.60;;;18.33;;
21114;SDS011;10715;48.546;9.896;2023-03-04T00:29:20;43.20;;;19.20;;
21114;SDS011;10715;48.546;9.896;2023-03-04T00:31:46;38.47;;;17.90;;
21114;SDS011;10715;48.546;9.896;2023-03-04T00:34:12;36.57;;;17.50;;
21114;SDS011;10715;48.546;9.896;2023-03-04T00:36:37;46.40;;;19.50;;
21114;SDS011;10715;48.546;9.896;2023-03-04T00:39:03;35.37;;;17.90;;
21114;SDS011;10715;48.546;9.896;2023-03-04T00:41:30;40.43;;;18.13;;
21114;SDS011;10715;48.546;9.896;2023-03-04T00:43:55;40.53;;;19.00;;
21114;SDS011;10715;48.546;9.896;2023-03-04T00:46:21;38.20;;;17.30;;
21114;SDS011;10715;48.546;9.896;2023-03-04T00:48:46;38.30;;;16.87;;
21114;SDS011;10715;48.546;9.896;2023-03-04T00:51:12;37.50;;;17.47;;
21114;SDS011;10715;48.546;9.896;2023-03-04T00:53:38;39.00;;;20.03;;
21114;SDS011;10715;48.546;9.896;2023-03-04T00:56:04;40.40;;;16.37;;
21114;SDS011;10715;48.546;9.896;2023-03-04T00:58:30;36.03;;;16.77;;
21114;SDS011;10715;48.546;9.896;2023-03-04T01:00:55;41.93;;;19.53;;
21114;SDS011;10715;48.546;9.896;2023-03-04T01:03:21;35.20;;;18.70;;
21114;SDS011;10715;48.546;9.896;2023-03-04T01:05:48;34.63;;;19.00;;
21114;SDS011;10715;48.546;9.896;2023-03-04T01:08:14;36.40;;;18.47;;
21114;SDS011;10715;48.546;9.896;2023-03-04T01:10:39;31.93;;;17.50;;
21114;SDS011;10715;48.546;9.896;2023-03-04T01:13:05;44.30;;;19.07;;
21114;SDS011;10715;48.546;9.896;2023-03-04T01:15:31;51.07;;;19.57;;
21114;SDS011;10715;48.546;9.896;2023-03-04T01:17:56;40.27;;;16.23;;
21114;SDS011;10715;48.546;9.896;2023-03-04T01:20:22;43.67;;;17.30;;
21114;SDS011;10715;48.546;9.896;2023-03-04T01:22:48;38.60;;;18.37;;
21114;SDS011;10715;48.546;9.896;2023-03-04T01:25:13;34.27;;;17.77;;
21114;SDS011;10715;48.546;9.896;2023-03-04T01:27:39;41.60;;;18.50;;
21114;SDS011;10715;48.546;9.896;2023-03-04T01:30:05;31.97;;;17.10;;
21114;SDS011;10715;48.546;9.896;2023-03-04T01:32:31;37.50;;;18.60;;
21114;SDS011;10715;48.546;9.896;2023-03-04T01:34:56;37.73;;;19.07;;
21114;SDS011;10715;48.546;9.896;2023-03-04T01:37:22;45.67;;;19.63;;
21114;SDS011;10715;48.546;9.896;2023-03-04T01:39:48;44.40;;;18.70;;
21114;SDS011;10715;48.546;9.896;2023-03-04T01:42:18;43.30;;;20.07;;
21114;SDS011;10715;48.546;9.896;2023-03-04T01:44:46;41.00;;;18.67;;
21114;SDS011;10715;48.546;9.896;2023-03-04T01:47:12;35.67;;;18.47;;
21114;SDS011;10715;48.546;9.896;2023-03-04T01:49:38;34.33;;;17.23;;
21114;SDS011;10715;48.546;9.896;2023-03-04T01:52:04;32.87;;;18.30;;
21114;SDS011;10715;48.546;9.896;2023-03-04T01:54:34;47.70;;;18.10;;
21114;SDS011;10715;48.546;9.896;2023-03-04T01:56:59;52.00;;;19.43;;
21114;SDS011;10715;48.546;9.896;2023-03-04T01:59:27;47.13;;;20.17;;
21114;SDS011;10715;48.546;9.896;2023-03-04T02:01:56;46.23;;;20.03;;
21114;SDS011;10715;48.546;9.896;2023-03-04T02:04:28;44.47;;;20.07;;
21114;SDS011;10715;48.546;9.896;2023-03-04T02:06:56;34.27;;;17.90;;
21114;SDS011;10715;48.546;9.896;2023-03-04T02:09:23;37.93;;;16.53;;
21114;SDS011;10715;48.546;9.896;2023-03-04T02:11:50;37.90;;;17.80;;
21114;SDS011;10715;48.546;9.896;2023-03-04T02:14:16;33.73;;;17.60;;
21114;SDS011;10715;48.546;9.896;2023-03-04T02:16:43;33.00;;;16.80;;
21114;SDS011;10715;48.546;9.896;2023-03-04T02:19:18;32.43;;;16.77;;
21114;SDS011;10715;48.546;9.896;2023-03-04T02:21:51;45.80;;;19.70;;
21114;SDS011;10715;48.546;9.896;2023-03-04T02:24:19;36.73;;;17.07;;
21114;SDS011;10715;48.546;9.896;2023-03-04T02:26:58;35.23;;;17.33;;
21114;SDS011;10715;48.546;9.896;2023-03-04T02:29:24;40.47;;;18.43;;
21114;SDS011;10715;48.546;9.896;2023-03-04T02:31:50;37.60;;;19.47;;
21114;SDS011;10715;48.546;9.896;2023-03-04T02:34:19;35.47;;;17.67;;
21114;SDS011;10715;48.546;9.896;2023-03-04T02:36:50;43.37;;;18.80;;
21114;SDS011;10715;48.546;9.896;2023-03-04T02:41:55;40.33;;;19.07;;
21114;SDS011;10715;48.546;9.896;2023-03-04T02:44:31;43.17;;;18.63;;
21114;SDS011;10715;48.546;9.896;2023-03-04T02:47:01;46.90;;;18.90;;
21114;SDS011;10715;48.546;9.896;2023-03-04T02:49:29;43.40;;;18.37;;
21114;SDS011;10715;48.546;9.896;2023-03-04T02:52:01;41.00;;;19.37;;
21114;SDS011;10715;48.546;9.896;2023-03-04T02:54:39;53.53;;;21.70;;
21114;SDS011;10715;48.546;9.896;2023-03-04T02:57:06;35.63;;;18.70;;
21114;SDS011;10715;48.546;9.896;2023-03-04T02:59:34;33.73;;;16.73;;
21114;SDS011;10715;48.546;9.896;2023-03-04T03:02:00;41.07;;;17.73;;
21114;SDS011;10715;48.546;9.896;2023-03-04T03:04:26;35.63;;;17.80;;
21114;SDS011;10715;48.546;9.896;2023-03-04T03:06:52;37.50;;;20.00;;
21114;SDS011;10715;48.546;9.896;2023-03-04T03:09:18;35.17;;;19.07;;
21114;SDS011;10715;48.546;9.896;2023-03-04T03:11:44;59.17;;;20.90;;
21114;SDS011;10715;48.546;9.896;2023-03-04T03:14:10;35.57;;;18.67;;
21114;SDS011;10715;48.546;9.896;2023-03-04T03:16:36;49.73;;;21.33;;
21114;SDS011;10715;48.546;9.896;2023-03-04T03:19:02;42.70;;;21.50;;
21114;SDS011;10715;48.546;9.896;2023-03-04T03:21:27;40.33;;;22.20;;
21114;SDS011;10715;48.546;9.896;2023-03-04T03:23:53;42.87;;;19.93;;
21114;SDS011;10715;48.546;9.896;2023-03-04T03:26:19;46.93;;;21.10;;
21114;SDS011;10715;48.546;9.896;2023-03-04T03:28:45;47.57;;;21.93;;
21114;SDS011;10715;48.546;9.896;2023-03-04T03:31:11;41.13;;;18.10;;
21114;SDS011;10715;48.546;9.896;2023-03-04T03:33:37;45.30;;;20.33;;
21114;SDS011;10715;48.546;9.896;2023-03-04T03:36:02;42.57;;;20.50;;
21114;SDS011;10715;48.546;9.896;2023-03-04T03:38:28;38.73;;;19.53;;
21114;SDS011;10715;48.546;9.896;2023-03-04T03:40:54;54.03;;;21.00;;
21114;SDS011;10715;48.546;9.896;2023-03-04T03:43:20;48.33;;;21.17;;
21114;SDS011;10715;48.546;9.896;2023-03-04T03:45:46;45.40;;;20.33;;
21114;SDS011;10715;48.546;9.896;2023-03-04T03:48:12;50.23;;;21.17;;
21114;SDS011;10715;48.546;9.896;2023-03-04T03:50:38;44.90;;;19.00;;
21114;SDS011;10715;48.546;9.896;2023-03-04T03:53:04;43.27;;;20.67;;
21114;SDS011;10715;48.546;9.896;2023-03-04T03:55:29;49.40;;;23.17;;
21114;SDS011;10715;48.546;9.896;2023-03-04T03:57:56;38.70;;;18.80;;
21114;SDS011;10715;48.546;9.896;2023-03-04T04:00:22;51.47;;;22.50;;
21114;SDS011;10715;48.546;9.896;2023-03-04T04:02:48;42.23;;;18.13;;
21114;SDS011;10715;48.546;9.896;2023-03-04T04:05:14;39.70;;;21.00;;
21114;SDS011;10715;48.546;9.896;2023-03-04T04:07:40;56.07;;;21.33;;
21114;SDS011;10715;48.546;9.896;2023-03-04T04:10:06;39.43;;;18.33;;
21114;SDS011;10715;48.546;9.896;2023-03-04T04:12:32;41.60;;;17.77;;
21114;SDS011;10715;48.546;9.896;2023-03-04T04:14:58;48.40;;;20.97;;
21114;SDS011;10715;48.546;9.896;2023-03-04T04:17:24;43.00;;;19.83;;
21114;SDS011;10715;48.546;9.896;2023-03-04T04:19:50;44.37;;;18.70;;
21114;SDS011;10715;48.546;9.896;2023-03-04T04:22:16;55.00;;;21.47;;
21114;SDS011;10715;48.546;9.896;2023-03-04T04:24:43;43.40;;;22.17;;
21114;SDS011;10715;48.546;9.896;2023-03-04T04:27:09;52.63;;;20.53;;
21114;SDS011;10715;48.546;9.896;2023-03-04T04:29:35;45.50;;;19.07;;
21114;SDS011;10715;48.546;9.896;2023-03-04T04:32:01;44.50;;;19.90;;
21114;SDS011;10715;48.546;9.896;2023-03-04T04:34:27;53.13;;;22.63;;
21114;SDS011;10715;48.546;9.896;2023-03-04T04:36:53;47.70;;;20.83;;
21114;SDS011;10715;48.546;9.896;2023-03-04T04:39:19;40.33;;;20.07;;
21114;SDS011;10715;48.546;9.896;2023-03-04T04:41:45;47.13;;;20.20;;
21114;SDS011;10715;48.546;9.896;2023-03-04T04:44:11;45.00;;;20.10;;
21114;SDS011;10715;48.546;9.896;2023-03-04T04:46:38;46.47;;;20.70;;
21114;SDS011;10715;48.546;9.896;2023-03-04T04:49:05;56.40;;;26.10;;
21114;SDS011;10715;48.546;9.896;2023-03-04T04:51:31;52.43;;;22.13;;
21114;SDS011;10715;48.546;9.896;2023-03-04T04:53:58;48.67;;;24.00;;
21114;SDS011;10715;48.546;9.896;2023-03-04T04:56:26;46.77;;;24.17;;
21114;SDS011;10715;48.546;9.896;2023-03-04T04:58:53;51.13;;;23.63;;
21114;SDS011;10715;48.546;9.896;2023-03-04T05:01:24;66.50;;;27.93;;
21114;SDS011;10715;48.546;9.896;2023-03-04T05:03:49;62.67;;;29.27;;
21114;SDS011;10715;48.546;9.896;2023-03-04T05:06:17;60.47;;;30.07;;
21114;SDS011;10715;48.546;9.896;2023-03-04T05:08:43;70.37;;;29.70;;
21114;SDS011;10715;48.546;9.896;2023-03-04T05:11:09;55.30;;;26.50;;
21114;SDS011;10715;48.546;9.896;2023-03-04T05:13:35;60.03;;;28.23;;
21114;SDS011;10715;48.546;9.896;2023-03-04T05:16:01;67.43;;;28.93;;
21114;SDS011;10715;48.546;9.896;2023-03-04T05:18:27;75.13;;;27.60;;
21114;SDS011;10715;48.546;9.896;2023-03-04T05:20:54;58.30;;;27.73;;
21114;SDS011;10715;48.546;9.896;2023-03-04T05:23:24;45.47;;;25.03;;
21114;SDS011;10715;48.546;9.896;2023-03-04T05:25:51;48.57;;;25.07;;
21114;SDS011;10715;48.546;9.896;2023-03-04T05:28:17;51.57;;;25.73;;
21114;SDS011;10715;48.546;9.896;2023-03-04T05:30:44;41.00;;;21.27;;
21114;SDS011;10715;48.546;9.896;2023-03-04T05:33:10;44.77;;;19.93;;
21114;SDS011;10715;48.546;9.896;2023-03-04T05:35:38;61.30;;;23.60;;
21114;SDS011;10715;48.546;9.896;2023-03-04T05:38:05;58.67;;;23.77;;
21114;SDS011;10715;48.546;9.896;2023-03-04T05:40:32;57.63;;;23.53;;
21114;SDS011;10715;48.546;9.896;2023-03-04T05:42:58;47.77;;;22.87;;
21114;SDS011;10715;48.546;9.896;2023-03-04T05:45:24;48.93;;;22.77;;
21114;SDS011;10715;48.546;9.896;2023-03-04T05:47:51;51.77;;;25.90;;
21114;SDS011;10715;48.546;9.896;2023-03-04T05:50:17;52.37;;;22.10;;
21114;SDS011;10715;48.546;9.896;2023-03-04T05:52:43;46.87;;;22.67;;
21114;SDS011;10715;48.546;9.896;2023-03-04T05:55:08;52.17;;;24.23;;
21114;SDS011;10715;48.546;9.896;2023-03-04T05:57:34;47.70;;;22.83;;
21114;SDS011;10715;48.546;9.896;2023-03-04T06:00:00;47.67;;;22.67;;
21114;SDS011;10715;48.546;9.896;2023-03-04T06:02:26;59.13;;;22.77;;
21114;SDS011;10715;48.546;9.896;2023-03-04T06:04:52;46.20;;;21.27;;
21114;SDS011;10715;48.546;9.896;2023-03-04T06:07:17;47.73;;;21.30;;
21114;SDS011;10715;48.546;9.896;2023-03-04T06:09:43;45.40;;;22.50;;
21114;SDS011;10715;48.546;9.896;2023-03-04T06:12:09;57.63;;;24.83;;
21114;SDS011;10715;48.546;9.896;2023-03-04T06:14:36;62.87;;;26.37;;
21114;SDS011;10715;48.546;9.896;2023-03-04T06:17:01;52.80;;;22.50;;
21114;SDS011;10715;48.546;9.896;2023-03-04T06:19:28;48.43;;;24.67;;
21114;SDS011;10715;48.546;9.896;2023-03-04T06:21:53;59.03;;;27.40;;
21114;SDS011;10715;48.546;9.896;2023-03-04T06:24:20;65.17;;;28.20;;
21114;SDS011;10715;48.546;9.896;2023-03-04T06:26:46;59.37;;;25.73;;
21114;SDS011;10715;48.546;9.896;2023-03-04T06:29:11;70.97;;;25.87;;
21114;SDS011;10715;48.546;9.896;2023-03-04T06:31:37;64.13;;;28.70;;
21114;SDS011;10715;48.546;9.896;2023-03-04T06:34:05;75.00;;;30.70;;
21114;SDS011;10715;48.546;9.896;2023-03-04T06:36:32;56.10;;;26.30;;
21114;SDS011;10715;48.546;9.896;2023-03-04T06:38:58;63.40;;;27.60;;
21114;SDS011;10715;48.546;9.896;2023-03-04T06:41:25;73.07;;;28.97;;
21114;SDS011;10715;48.546;9.896;2023-03-04T06:43:54;69.23;;;26.83;;
21114;SDS011;10715;48.546;9.896;2023-03-04T06:46:20;67.77;;;25.57;;
21114;SDS011;10715;48.546;9.896;2023-03-04T06:48:46;60.77;;;25.57;;
21114;SDS011;10715;48.546;9.896;2023-03-04T06:51:12;66.13;;;29.00;;
21114;SDS011;10715;48.546;9.896;2023-03-04T06:53:38;63.30;;;27.57;;
21114;SDS011;10715;48.546;9.896;2023-03-04T06:56:04;79.43;;;31.37;;
21114;SDS011;10715;48.546;9.896;2023-03-04T06:58:31;62.00;;;31.87;;
21114;SDS011;10715;48.546;9.896;2023-03-04T07:01:07;69.40;;;27.30;;
21114;SDS011;10715;48.546;9.896;2023-03-04T07:03:36;73.77;;;29.07;;
21114;SDS011;10715;48.546;9.896;2023-03-04T07:06:02;80.13;;;31.60;;
21114;SDS011;10715;48.546;9.896;2023-03-04T07:08:28;70.83;;;31.57;;
21114;SDS011;10715;48.546;9.896;2023-03-04T07:10:53;60.50;;;29.17;;
21114;SDS011;10715;48.546;9.896;2023-03-04T07:13:19;76.40;;;30.80;;
21114;SDS011;10715;48.546;9.896;2023-03-04T07:15:45;80.03;;;35.10;;
21114;SDS011;10715;48.546;9.896;2023-03-04T07:18:10;88.07;;;34.17;;
21114;SDS011;10715;48.546;9.896;2023-03-04T07:20:36;96.10;;;35.00;;
21114;SDS011;10715;48.546;9.896;2023-03-04T07:23:02;82.20;;;30.97;;
21114;SDS011;10715;48.546;9.896;2023-03-04T07:25:28;81.23;;;30.43;;
21114;SDS011;10715;48.546;9.896;2023-03-04T07:27:54;70.93;;;31.60;;
21114;SDS011;10715;48.546;9.896;2023-03-04T07:30:19;73.90;;;33.50;;
21114;SDS011;10715;48.546;9.896;2023-03-04T07:32:45;75.30;;;31.70;;
21114;SDS011;10715;48.546;9.896;2023-03-04T07:35:11;74.30;;;30.47;;
21114;SDS011;10715;48.546;9.896;2023-03-04T07:37:37;82.53;;;31.93;;
21114;SDS011;10715;48.546;9.896;2023-03-04T07:40:04;80.13;;;33.67;;
21114;SDS011;10715;48.546;9.896;2023-03-04T07:42:32;77.07;;;32.70;;
21114;SDS011;10715;48.546;9.896;2023-03-04T07:44:58;72.47;;;30.97;;
21114;SDS011;10715;48.546;9.896;2023-03-04T07:47:25;77.73;;;32.43;;
21114;SDS011;10715;48.546;9.896;2023-03-04T07:49:52;67.57;;;30.10;;
21114;SDS011;10715;48.546;9.896;2023-03-04T07:52:18;71.60;;;30.83;;
21114;SDS011;10715;48.546;9.896;2023-03-04T07:54:44;73.63;;;31.73;;
21114;SDS011;10715;48.546;9.896;2023-03-04T07:57:10;79.40;;;29.50;;
21114;SDS011;10715;48.546;9.896;2023-03-04T07:59:35;76.03;;;34.80;;
21114;SDS011;10715;48.546;9.896;2023-03-04T08:02:01;79.90;;;31.20;;
21114;SDS011;10715;48.546;9.896;2023-03-04T08:04:27;73.97;;;28.30;;
21114;SDS011;10715;48.546;9.896;2023-03-04T08:06:53;69.60;;;30.37;;
21114;SDS011;10715;48.546;9.896;2023-03-04T08:09:18;74.97;;;28.60;;
21114;SDS011;10715;48.546;9.896;2023-03-04T08:11:44;86.00;;;31.13;;
21114;SDS011;10715;48.546;9.896;2023-03-04T08:14:11;59.43;;;26.47;;
21114;SDS011;10715;48.546;9.896;2023-03-04T08:16:38;65.87;;;27.50;;
21114;SDS011;10715;48.546;9.896;2023-03-04T08:19:04;64.47;;;29.00;;
21114;SDS011;10715;48.546;9.896;2023-03-04T08:21:30;71.07;;;28.60;;
21114;SDS011;10715;48.546;9.896;2023-03-04T08:23:57;64.47;;;25.67;;
21114;SDS011;10715;48.546;9.896;2023-03-04T08:26:30;68.40;;;29.47;;
21114;SDS011;10715;48.546;9.896;2023-03-04T08:28:59;73.87;;;29.23;;
21114;SDS011;10715;48.546;9.896;2023-03-04T08:31:26;65.70;;;29.57;;
21114;SDS011;10715;48.546;9.896;2023-03-04T08:33:52;77.20;;;30.03;;
21114;SDS011;10715;48.546;9.896;2023-03-04T08:36:18;87.30;;;31.10;;
21114;SDS011;10715;48.546;9.896;2023-03-04T08:38:44;67.03;;;28.30;;
21114;SDS011;10715;48.546;9.896;2023-03-04T08:41:10;71.50;;;28.90;;
21114;SDS011;10715;48.546;9.896;2023-03-04T08:43:37;59.93;;;29.00;;
21114;SDS011;10715;48.546;9.896;2023-03-04T08:46:03;69.47;;;27.93;;
21114;SDS011;10715;48.546;9.896;2023-03-04T08:48:30;66.77;;;27.80;;
21114;SDS011;10715;48.546;9.896;2023-03-04T08:50:56;74.53;;;29.23;;
21114;SDS011;10715;48.546;9.896;2023-03-04T08:53:22;65.73;;;28.93;;
21114;SDS011;10715;48.546;9.896;2023-03-04T08:55:49;63.97;;;28.40;;
21114;SDS011;10715;48.546;9.896;2023-03-04T08:58:15;53.13;;;27.87;;
21114;SDS011;10715;48.546;9.896;2023-03-04T09:00:42;65.80;;;25.93;;
21114;SDS011;10715;48.546;9.896;2023-03-04T09:03:10;74.83;;;29.70;;
21114;SDS011;10715;48.546;9.896;2023-03-04T09:05:36;60.80;;;25.70;;
21114;SDS011;10715;48.546;9.896;2023-03-04T09:08:03;75.87;;;29.70;;
21114;SDS011;10715;48.546;9.896;2023-03-04T09:10:28;73.17;;;29.77;;
21114;SDS011;10715;48.546;9.896;2023-03-04T09:12:57;82.10;;;31.83;;
21114;SDS011;10715;48.546;9.896;2023-03-04T09:15:23;68.33;;;28.07;;
21114;SDS011;10715;48.546;9.896;2023-03-04T09:17:49;58.63;;;27.00;;
21114;SDS011;10715;48.546;9.896;2023-03-04T09:20:15;57.87;;;24.87;;
21114;SDS011;10715;48.546;9.896;2023-03-04T09:22:41;55.13;;;25.90;;
21114;SDS011;10715;48.546;9.896;2023-03-04T09:25:07;62.67;;;24.80;;
21114;SDS011;10715;48.546;9.896;2023-03-04T09:27:35;59.83;;;22.67;;
21114;SDS011;10715;48.546;9.896;2023-03-04T09:30:00;68.27;;;26.43;;
21114;SDS011;10715;48.546;9.896;2023-03-04T09:32:26;65.37;;;25.57;;
21114;SDS011;10715;48.546;9.896;2023-03-04T09:34:52;59.20;;;26.33;;
21114;SDS011;10715;48.546;9.896;2023-03-04T09:37:18;70.40;;;27.50;;
21114;SDS011;10715;48.546;9.896;2023-03-04T09:39:43;64.77;;;24.87;;
21114;SDS011;10715;48.546;9.896;2023-03-04T09:42:11;54.63;;;23.10;;
21114;SDS011;10715;48.546;9.896;2023-03-04T09:44:48;62.00;;;24.13;;
21114;SDS011;10715;48.546;9.896;2023-03-04T09:47:15;50.17;;;21.20;;
21114;SDS011;10715;48.546;9.896;2023-03-04T09:49:44;57.30;;;24.97;;
21114;SDS011;10715;48.546;9.896;2023-03-04T09:59:55;66.53;;;28.90;;
21114;SDS011;10715;48.546;9.896;2023-03-04T10:02:41;57.87;;;24.00;;
21114;SDS011;10715;48.546;9.896;2023-03-04T10:05:30;54.37;;;23.87;;
21114;SDS011;10715;48.546;9.896;2023-03-04T10:10:48;59.60;;;24.00;;
21114;SDS011;10715;48.546;9.896;2023-03-04T10:13:18;47.03;;;22.63;;
21114;SDS011;10715;48.546;9.896;2023-03-04T10:15:55;55.67;;;24.27;;
21114;SDS011;10715;48.546;9.896;2023-03-04T10:18:24;51.27;;;20.67;;
21114;SDS011;10715;48.546;9.896;2023-03-04T10:23:29;65.67;;;25.67;;
21114;SDS011;10715;48.546;9.896;2023-03-04T10:25:56;52.63;;;22.80;;
21114;SDS011;10715;48.546;9.896;2023-03-04T10:28:26;66.00;;;26.00;;
21114;SDS011;10715;48.546;9.896;2023-03-04T10:33:30;51.40;;;24.63;;
21114;SDS011;10715;48.546;9.896;2023-03-04T10:38:39;45.07;;;21.67;;
21114;SDS011;10715;48.546;9.896;2023-03-04T10:41:14;55.40;;;21.40;;
21114;SDS011;10715;48.546;9.896;2023-03-04T10:43:41;50.67;;;23.70;;
21114;SDS011;10715;48.546;9.896;2023-03-04T10:46:11;47.17;;;21.20;;
21114;SDS011;10715;48.546;9.896;2023-03-04T10:48:37;53.73;;;20.23;;
21114;SDS011;10715;48.546;9.896;2023-03-04T10:51:10;51.53;;;20.60;;
21114;SDS011;10715;48.546;9.896;2023-03-04T10:53:38;48.57;;;20.47;;
21114;SDS011;10715;48.546;9.896;2023-03-04T10:56:53;35.23;;;16.73;;
21114;SDS011;10715;48.546;9.896;2023-03-04T11:02:00;52.23;;;21.77;;
21114;SDS011;10715;48.546;9.896;2023-03-04T11:04:50;38.57;;;16.40;;
21114;SDS011;10715;48.546;9.896;2023-03-04T11:07:30;45.03;;;18.80;;
21114;SDS011;10715;48.546;9.896;2023-03-04T11:15:49;42.20;;;21.60;;
21114;SDS011;10715;48.546;9.896;2023-03-04T11:18:37;54.83;;;22.47;;
21114;SDS011;10715;48.546;9.896;2023-03-04T11:21:28;47.87;;;20.40;;
21114;SDS011;10715;48.546;9.896;2023-03-04T11:24:00;51.00;;;23.57;;
21114;SDS011;10715;48.546;9.896;2023-03-04T11:26:34;49.50;;;20.20;;
21114;SDS011;10715;48.546;9.896;2023-03-04T11:29:20;47.20;;;21.70;;
21114;SDS011;10715;48.546;9.896;2023-03-04T11:39:43;45.30;;;20.27;;
21114;SDS011;10715;48.546;9.896;2023-03-04T11:45:16;37.27;;;15.43;;
21114;SDS011;10715;48.546;9.896;2023-03-04T12:14:50;36.90;;;14.00;;
21114;SDS011;10715;48.546;9.896;2023-03-04T12:20:19;35.97;;;13.90;;
21114;SDS011;10715;48.546;9.896;2023-03-04T12:22:51;32.40;;;13.10;;
21114;SDS011;10715;48.546;9.896;2023-03-04T12:31:28;40.67;;;14.00;;
21114;SDS011;10715;48.546;9.896;2023-03-04T12:34:03;32.77;;;12.90;;
21114;SDS011;10715;48.546;9.896;2023-03-04T12:45:27;27.13;;;11.67;;
21114;SDS011;10715;48.546;9.896;2023-03-04T12:48:31;25.93;;;14.83;;
21114;SDS011;10715;48.546;9.896;2023-03-04T12:53:59;28.83;;;13.60;;
21114;SDS011;10715;48.546;9.896;2023-03-04T12:56:48;34.63;;;14.80;;
21114;SDS011;10715;48.546;9.896;2023-03-04T12:59:21;34.43;;;13.87;;
21114;SDS011;10715;48.546;9.896;2023-03-04T13:10:27;33.30;;;13.53;;
21114;SDS011;10715;48.546;9.896;2023-03-04T13:12:54;50.47;;;18.10;;
21114;SDS011;10715;48.546;9.896;2023-03-04T13:17:54;40.37;;;14.43;;
21114;SDS011;10715;48.546;9.896;2023-03-04T13:20:23;34.13;;;13.87;;
21114;SDS011;10715;48.546;9.896;2023-03-04T13:43:59;45.73;;;15.27;;
21114;SDS011;10715;48.546;9.896;2023-03-04T13:46:27;26.43;;;13.23;;
21114;SDS011;10715;48.546;9.896;2023-03-04T13:49:03;36.87;;;14.43;;
21114;SDS011;10715;48.546;9.896;2023-03-04T13:51:42;43.70;;;18.63;;
21114;SDS011;10715;48.546;9.896;2023-03-04T14:05:02;35.50;;;15.60;;
21114;SDS011;10715;48.546;9.896;2023-03-04T14:07:28;45.33;;;16.77;;
21114;SDS011;10715;48.546;9.896;2023-03-04T14:12:32;36.13;;;16.20;;
21114;SDS011;10715;48.546;9.896;2023-03-04T14:15:02;34.73;;;15.07;;
21114;SDS011;10715;48.546;9.896;2023-03-04T14:17:34;36.53;;;15.90;;
21114;SDS011;10715;48.546;9.896;2023-03-04T14:20:01;33.00;;;14.60;;
21114;SDS011;10715;48.546;9.896;2023-03-04T14:22:30;34.53;;;16.17;;
21114;SDS011;10715;48.546;9.896;2023-03-04T14:27:32;35.43;;;15.53;;
21114;SDS011;10715;48.546;9.896;2023-03-04T14:30:34;35.40;;;16.10;;
21114;SDS011;10715;48.546;9.896;2023-03-04T14:32:53;44.33;;;15.43;;
21114;SDS011;10715;48.546;9.896;2023-03-04T14:35:26;46.27;;;18.10;;
21114;SDS011;10715;48.546;9.896;2023-03-04T14:40:23;34.20;;;15.40;;
21114;SDS011;10715;48.546;9.896;2023-03-04T14:42:56;33.77;;;17.07;;
21114;SDS011;10715;48.546;9.896;2023-03-04T14:45:26;37.10;;;16.80;;
21114;SDS011;10715;48.546;9.896;2023-03-04T14:47:54;43.53;;;18.87;;
21114;SDS011;10715;48.546;9.896;2023-03-04T14:50:23;40.23;;;17.37;;
21114;SDS011;10715;48.546;9.896;2023-03-04T14:52:49;46.43;;;19.03;;
21114;SDS011;10715;48.546;9.896;2023-03-04T14:58:27;33.60;;;18.07;;
21114;SDS011;10715;48.546;9.896;2023-03-04T15:03:40;32.67;;;17.30;;
21114;SDS011;10715;48.546;9.896;2023-03-04T15:06:23;43.10;;;18.23;;
21114;SDS011;10715;48.546;9.896;2023-03-04T15:09:00;46.27;;;18.07;;
21114;SDS011;10715;48.546;9.896;2023-03-04T15:11:31;45.50;;;19.27;;
21114;SDS011;10715;48.546;9.896;2023-03-04T15:20:26;48.00;;;19.53;;
21114;SDS011;10715;48.546;9.896;2023-03-04T15:22:58;46.67;;;21.63;;
21114;SDS011;10715;48.546;9.896;2023-03-04T15:25:26;46.97;;;19.80;;
21114;SDS011;10715;48.546;9.896;2023-03-04T15:27:52;49.30;;;19.30;;
21114;SDS011;10715;48.546;9.896;2023-03-04T15:30:19;43.53;;;18.40;;
21114;SDS011;10715;48.546;9.896;2023-03-04T15:32:48;42.10;;;19.50;;
21114;SDS011;10715;48.546;9.896;2023-03-04T15:35:15;43.53;;;18.73;;
21114;SDS011;10715;48.546;9.896;2023-03-04T15:37:42;55.57;;;20.67;;
21114;SDS011;10715;48.546;9.896;2023-03-04T15:40:14;46.73;;;21.00;;
21114;SDS011;10715;48.546;9.896;2023-03-04T15:42:46;41.07;;;20.03;;
21114;SDS011;10715;48.546;9.896;2023-03-04T15:45:22;53.90;;;21.30;;
21114;SDS011;10715;48.546;9.896;2023-03-04T15:47:59;47.33;;;19.60;;
21114;SDS011;10715;48.546;9.896;2023-03-04T15:50:28;69.13;;;22.77;;
21114;SDS011;10715;48.546;9.896;2023-03-04T15:52:57;55.97;;;21.30;;
21114;SDS011;10715;48.546;9.896;2023-03-04T15:55:27;52.17;;;18.17;;
21114;SDS011;10715;48.546;9.896;2023-03-04T15:57:54;49.60;;;20.40;;
21114;SDS011;10715;48.546;9.896;2023-03-04T16:00:22;71.50;;;25.00;;
21114;SDS011;10715;48.546;9.896;2023-03-04T16:02:49;44.63;;;20.33;;
21114;SDS011;10715;48.546;9.896;2023-03-04T16:05:16;59.90;;;22.30;;
21114;SDS011;10715;48.546;9.896;2023-03-04T16:07:46;56.63;;;24.33;;
21114;SDS011;10715;48.546;9.896;2023-03-04T16:10:16;41.23;;;19.47;;
21114;SDS011;10715;48.546;9.896;2023-03-04T16:12:48;53.50;;;22.10;;
21114;SDS011;10715;48.546;9.896;2023-03-04T16:15:21;54.73;;;20.23;;
21114;SDS011;10715;48.546;9.896;2023-03-04T16:17:49;53.80;;;22.10;;
21114;SDS011;10715;48.546;9.896;2023-03-04T16:20:16;56.43;;;22.27;;
21114;SDS011;10715;48.546;9.896;2023-03-04T16:22:48;51.40;;;18.87;;
21114;SDS011;10715;48.546;9.896;2023-03-04T16:25:15;54.77;;;20.00;;
21114;SDS011;10715;48.546;9.896;2023-03-04T16:27:42;47.63;;;20.40;;
21114;SDS011;10715;48.546;9.896;2023-03-04T16:30:13;56.13;;;22.07;;
21114;SDS011;10715;48.546;9.896;2023-03-04T16:32:40;49.30;;;18.33;;
21114;SDS011;10715;48.546;9.896;2023-03-04T16:35:06;49.60;;;22.03;;
21114;SDS011;10715;48.546;9.896;2023-03-04T16:37:33;51.83;;;20.37;;
21114;SDS011;10715;48.546;9.896;2023-03-04T16:39:58;57.80;;;21.80;;
21114;SDS011;10715;48.546;9.896;2023-03-04T16:42:24;44.33;;;17.83;;
21114;SDS011;10715;48.546;9.896;2023-03-04T16:44:51;36.93;;;16.07;;
21114;SDS011;10715;48.546;9.896;2023-03-04T16:47:18;44.00;;;18.20;;
21114;SDS011;10715;48.546;9.896;2023-03-04T16:49:44;53.30;;;23.17;;
21114;SDS011;10715;48.546;9.896;2023-03-04T16:52:23;42.43;;;17.70;;
21114;SDS011;10715;48.546;9.896;2023-03-04T16:54:49;40.80;;;17.50;;
21114;SDS011;10715;48.546;9.896;2023-03-04T16:57:15;40.20;;;16.13;;